Time;durP1;ratioP1;P1;durP2;ratioP2;P2;SDS_P1;SDS_P2;PMS_P1;PMS_P2;Temp;Humidity;BMP_temperature;BMP_pressure;BME280_temperature;BME280_humidity;BME280_pressure;Samples;Min_cycle;Max_cycle;Signal;HPM_P1;HPM_P2
2021/01/08 00:01:26;;;;;;;16.13;11.40;;;0.70;99.90;;;;;;5118219;28;20179;-45
2021/01/08 00:03:52;;;;;;;17.10;11.47;;;0.50;99.90;;;;;;5117512;28;20445;-45
2021/01/08 00:06:18;;;;;;;14.57;11.00;;;0.50;99.90;;;;;;5117936;28;20187;-45
2021/01/08 00:08:44;;;;;;;13.40;10.90;;;0.60;99.90;;;;;;5118236;28;20188;-45
2021/01/08 00:11:10;;;;;;;14.63;11.97;;;0.50;99.90;;;;;;5134844;28;20879;-45
2021/01/08 00:13:36;;;;;;;13.93;10.30;;;0.50;99.90;;;;;;5138753;28;20187;-45
2021/01/08 00:16:02;;;;;;;13.43;10.43;;;0.50;99.90;;;;;;5138319;27;20222;-45
2021/01/08 00:18:28;;;;;;;15.90;10.50;;;0.50;99.90;;;;;;5131644;28;20460;-45
2021/01/08 00:20:53;;;;;;;14.10;9.90;;;0.50;99.90;;;;;;5117640;28;20803;-45
2021/01/08 00:23:19;;;;;;;13.13;10.23;;;0.50;99.90;;;;;;5117896;28;20180;-45
2021/01/08 00:25:50;;;;;;;12.93;9.13;;;0.40;99.90;;;;;;5118177;28;20184;-45
2021/01/08 00:28:15;;;;;;;13.13;9.93;;;0.40;99.90;;;;;;5118342;28;20188;-45
2021/01/08 00:30:41;;;;;;;17.47;11.97;;;0.40;99.90;;;;;;5132884;28;20862;-45
2021/01/08 00:33:07;;;;;;;11.90;8.87;;;0.40;99.90;;;;;;5122904;28;20191;-45
2021/01/08 00:35:36;;;;;;;12.80;9.00;;;0.40;99.90;;;;;;5138103;28;20214;-45
2021/01/08 00:38:03;;;;;;;12.80;10.47;;;0.50;99.90;;;;;;5138663;27;20216;-45
2021/01/08 00:40:28;;;;;;;14.93;10.37;;;0.50;99.90;;;;;;5122661;27;20421;-45
2021/01/08 00:42:54;;;;;;;14.60;10.60;;;0.50;99.90;;;;;;5117887;28;20763;-45
2021/01/08 00:45:20;;;;;;;12.00;9.50;;;0.50;99.90;;;;;;5117879;28;20184;-45
2021/01/08 00:47:46;;;;;;;14.37;9.73;;;0.40;99.90;;;;;;5128170;28;20500;-45
2021/01/08 00:50:12;;;;;;;13.40;9.90;;;0.40;99.90;;;;;;5138323;28;20413;-45
2021/01/08 00:52:38;;;;;;;12.37;9.70;;;0.40;99.90;;;;;;5138450;28;20208;-45
2021/01/08 00:55:04;;;;;;;13.33;10.63;;;0.50;99.90;;;;;;5137682;28;20579;-45
2021/01/08 00:57:30;;;;;;;15.37;10.77;;;0.30;99.90;;;;;;5131455;27;20172;-45
2021/01/08 00:59:55;;;;;;;17.83;12.30;;;0.40;99.90;;;;;;5136405;27;20444;-45
2021/01/08 01:02:23;;;;;;;15.30;11.60;;;0.30;99.90;;;;;;5140791;27;20183;-45
2021/01/08 01:04:49;;;;;;;17.47;11.47;;;0.40;99.90;;;;;;5141731;27;20183;-45
2021/01/08 01:07:15;;;;;;;14.93;10.73;;;0.40;99.90;;;;;;5140982;27;20679;-45
2021/01/08 01:09:40;;;;;;;14.70;11.90;;;0.30;99.90;;;;;;5141414;27;20194;-45
2021/01/08 01:12:06;;;;;;;14.57;12.20;;;0.30;99.90;;;;;;5141721;27;20194;-45
2021/01/08 01:14:32;;;;;;;15.43;11.40;;;0.20;99.90;;;;;;5141079;27;20215;-45
2021/01/08 01:17:05;;;;;;;15.80;11.37;;;0.20;99.90;;;;;;5128996;27;20723;-45
2021/01/08 01:19:31;;;;;;;18.23;11.90;;;0.20;99.90;;;;;;5120845;27;20394;-45
2021/01/08 01:21:57;;;;;;;14.70;10.90;;;0.10;99.90;;;;;;5121056;28;20686;-45
2021/01/08 01:24:22;;;;;;;16.80;12.53;;;0.20;99.90;;;;;;5121386;27;20298;-45
2021/01/08 01:26:54;;;;;;;14.93;10.53;;;0.30;99.90;;;;;;5120984;28;20432;-45
2021/01/08 01:29:20;;;;;;;14.43;11.00;;;0.30;99.90;;;;;;5120616;28;20576;-45
2021/01/08 01:31:46;;;;;;;15.47;11.53;;;0.30;99.90;;;;;;5120680;28;20463;-45
2021/01/08 01:34:11;;;;;;;15.77;11.23;;;0.30;99.90;;;;;;5120861;28;20410;-45
2021/01/08 01:36:37;;;;;;;15.37;10.83;;;0.30;99.90;;;;;;5120768;27;20223;-45
2021/01/08 01:39:03;;;;;;;14.93;11.47;;;0.30;99.90;;;;;;5120590;28;20232;-45
2021/01/08 01:41:29;;;;;;;20.50;11.83;;;0.30;99.90;;;;;;5120375;28;20258;-45
2021/01/08 01:43:54;;;;;;;18.13;12.27;;;0.20;99.90;;;;;;5120469;28;20426;-45
2021/01/08 01:46:21;;;;;;;13.33;10.70;;;0.30;99.90;;;;;;5120738;28;20188;-45
2021/01/08 01:48:48;;;;;;;16.87;11.67;;;0.20;99.90;;;;;;5120799;28;20187;-45
2021/01/08 01:51:14;;;;;;;15.10;11.50;;;0.20;99.90;;;;;;5119422;28;20524;-45
2021/01/08 01:53:40;;;;;;;14.50;10.70;;;0.20;99.90;;;;;;5119328;28;20849;-45
2021/01/08 01:56:05;;;;;;;16.93;12.13;;;0.20;99.90;;;;;;5119682;28;20501;-45
2021/01/08 01:58:32;;;;;;;15.10;12.27;;;0.20;99.90;;;;;;5120022;28;20198;-45
2021/01/08 02:00:58;;;;;;;15.23;10.03;;;0.20;99.90;;;;;;5120276;28;20187;-45
2021/01/08 02:03:40;;;;;;;13.73;10.43;;;0.20;99.90;;;;;;5119978;28;20406;-45
2021/01/08 02:06:10;;;;;;;10.70;9.23;;;0.20;99.90;;;;;;5120251;28;20210;-45
2021/01/08 02:08:37;;;;;;;11.90;9.37;;;0.20;99.90;;;;;;5119784;28;20429;-45
2021/01/08 02:11:06;;;;;;;13.53;10.30;;;0.20;99.90;;;;;;5119450;28;20521;-45
2021/01/08 02:13:42;;;;;;;14.30;9.37;;;0.20;99.90;;;;;;5118319;28;20428;-45
2021/01/08 02:16:09;;;;;;;12.03;9.50;;;0.20;99.90;;;;;;5119973;28;20580;-45
2021/01/08 02:18:35;;;;;;;11.97;8.80;;;0.10;99.90;;;;;;5118341;28;20456;-45
2021/01/08 02:21:05;;;;;;;14.73;9.20;;;0.10;99.90;;;;;;5118883;28;20471;-45
2021/01/08 02:24:01;;;;;;;15.70;10.10;;;0.10;99.90;;;;;;5119914;28;20428;-45
2021/01/08 02:26:27;;;;;;;14.13;10.50;;;0.10;99.90;;;;;;5119473;28;20480;-45
2021/01/08 02:28:54;;;;;;;13.33;9.40;;;0.10;99.90;;;;;;5119196;28;20457;-45
2021/01/08 02:31:20;;;;;;;16.40;11.50;;;0.00;99.90;;;;;;5118483;28;20454;-45
2021/01/08 02:33:46;;;;;;;16.30;11.20;;;0.00;99.90;;;;;;5119532;28;20763;-43
2021/01/08 02:36:11;;;;;;;12.43;9.63;;;0.00;99.90;;;;;;5118477;28;20207;-43
2021/01/08 02:38:38;;;;;;;15.27;10.63;;;0.00;99.90;;;;;;5118291;28;20196;-43
2021/01/08 02:41:06;;;;;;;15.73;11.93;;;0.00;99.90;;;;;;5119222;28;20428;-43
2021/01/08 02:43:33;;;;;;;17.83;12.03;;;0.00;99.90;;;;;;5118375;28;20905;-43
2021/01/08 02:46:00;;;;;;;15.57;11.13;;;0.00;99.90;;;;;;5118470;28;20856;-42
2021/01/08 02:48:26;;;;;;;13.93;10.13;;;0.00;99.90;;;;;;5119038;28;20414;-43
2021/01/08 02:50:51;;;;;;;13.57;9.50;;;0.00;99.90;;;;;;5118417;28;20410;-43
2021/01/08 02:53:21;;;;;;;14.67;9.97;;;-0.10;99.80;;;;;;5118939;28;20414;-43
2021/01/08 02:55:57;;;;;;;12.37;9.10;;;-0.10;99.80;;;;;;5119231;28;20210;-43
2021/01/08 02:58:23;;;;;;;14.13;10.03;;;-0.20;99.90;;;;;;5118632;28;20427;-43
2021/01/08 03:00:50;;;;;;;13.33;10.17;;;-0.20;99.90;;;;;;5100575;28;20437;-43
2021/01/08 03:03:16;;;;;;;14.40;9.97;;;-0.30;99.90;;;;;;5118368;28;20504;-44
2021/01/08 03:05:42;;;;;;;13.37;9.60;;;-0.20;99.90;;;;;;5118731;28;20421;-44
2021/01/08 03:08:08;;;;;;;13.90;10.87;;;-0.20;99.90;;;;;;5117508;28;20820;-44
2021/01/08 03:10:34;;;;;;;13.33;9.90;;;-0.20;99.90;;;;;;5117916;28;20210;-44
2021/01/08 03:13:03;;;;;;;15.30;9.93;;;-0.20;99.90;;;;;;5117749;28;20449;-44
2021/01/08 03:15:29;;;;;;;14.10;9.00;;;-0.10;99.90;;;;;;5118378;28;20334;-43
2021/01/08 03:17:55;;;;;;;12.77;10.10;;;-0.10;99.90;;;;;;5118796;28;20454;-44
2021/01/08 03:20:21;;;;;;;12.27;9.57;;;0.00;99.90;;;;;;5119168;28;20188;-44
2021/01/08 03:22:47;;;;;;;15.00;10.47;;;-0.10;99.90;;;;;;5118579;28;20425;-44
2021/01/08 03:25:13;;;;;;;14.13;10.70;;;-0.10;99.90;;;;;;5118715;28;20472;-44
2021/01/08 03:27:39;;;;;;;15.57;10.33;;;-0.10;99.90;;;;;;5118504;28;20274;-44
2021/01/08 03:30:06;;;;;;;14.83;11.00;;;-0.20;99.90;;;;;;5118436;28;20187;-44
2021/01/08 03:32:32;;;;;;;15.23;10.57;;;-0.20;99.90;;;;;;5118650;28;20430;-44
2021/01/08 03:34:57;;;;;;;14.03;9.97;;;-0.20;99.90;;;;;;5118581;28;20470;-44
2021/01/08 03:37:23;;;;;;;13.40;9.60;;;-0.20;99.90;;;;;;5118035;28;20528;-44
2021/01/08 03:39:49;;;;;;;12.33;9.80;;;-0.20;99.90;;;;;;5118264;28;20188;-44
2021/01/08 03:42:15;;;;;;;15.13;10.53;;;-0.40;99.90;;;;;;5118389;28;20275;-44
2021/01/08 03:44:40;;;;;;;15.03;10.90;;;-0.40;99.90;;;;;;5118022;28;20187;-44
2021/01/08 03:47:06;;;;;;;14.97;9.97;;;-0.30;99.90;;;;;;5117125;28;20468;-44
2021/01/08 03:49:37;;;;;;;15.30;10.60;;;-0.20;99.90;;;;;;5118474;28;20183;-44
2021/01/08 03:52:04;;;;;;;11.83;9.17;;;-0.20;99.90;;;;;;5118512;28;20274;-44
2021/01/08 03:54:30;;;;;;;13.50;9.87;;;-0.20;99.90;;;;;;5118130;28;20420;-44
2021/01/08 03:56:57;;;;;;;15.00;10.33;;;-0.10;99.90;;;;;;5117193;28;20520;-44
2021/01/08 03:59:23;;;;;;;15.40;10.70;;;-0.10;99.90;;;;;;5117982;28;20183;-44
2021/01/08 04:01:49;;;;;;;13.73;10.27;;;-0.10;99.90;;;;;;5117972;28;20494;-44
2021/01/08 04:04:14;;;;;;;14.53;10.10;;;-0.20;99.90;;;;;;5117869;28;20565;-44
2021/01/08 04:06:40;;;;;;;13.80;10.37;;;-0.20;99.90;;;;;;5117632;28;20215;-44
2021/01/08 04:09:06;;;;;;;13.60;9.60;;;-0.20;99.90;;;;;;5117154;28;20180;-44
2021/01/08 04:11:33;;;;;;;16.57;10.87;;;-0.20;99.90;;;;;;5116749;28;20465;-44
2021/01/08 04:13:59;;;;;;;16.00;10.03;;;-0.20;99.90;;;;;;5116769;28;20274;-44
2021/01/08 04:16:30;;;;;;;15.53;11.10;;;-0.20;99.90;;;;;;5117583;28;20804;-44
2021/01/08 04:18:56;;;;;;;16.33;11.53;;;-0.20;99.90;;;;;;5130944;28;20179;-44
2021/01/08 04:21:22;;;;;;;13.10;9.67;;;-0.20;99.90;;;;;;5127741;27;20444;-44
2021/01/08 04:23:47;;;;;;;12.67;9.53;;;-0.20;99.90;;;;;;5117794;28;20183;-44
2021/01/08 04:26:13;;;;;;;12.97;10.00;;;-0.20;99.90;;;;;;5119422;28;20183;-44
2021/01/08 04:28:38;;;;;;;14.23;9.10;;;-0.20;99.90;;;;;;5138294;27;20179;-44
2021/01/08 04:31:04;;;;;;;13.13;9.50;;;-0.10;99.90;;;;;;5136111;28;20187;-45
2021/01/08 04:33:30;;;;;;;12.30;8.43;;;-0.10;99.90;;;;;;5136047;28;20629;-45
2021/01/08 04:35:55;;;;;;;11.37;8.97;;;-0.10;99.90;;;;;;5136003;27;20214;-45
2021/01/08 04:38:21;;;;;;;13.20;9.20;;;-0.10;99.90;;;;;;5138450;27;20335;-45
2021/01/08 04:40:48;;;;;;;10.80;8.80;;;-0.10;99.90;;;;;;5138766;27;20175;-45
2021/01/08 04:43:14;;;;;;;11.73;9.53;;;-0.10;99.90;;;;;;5138512;27;20258;-46
2021/01/08 04:45:40;;;;;;;11.90;7.83;;;-0.10;99.90;;;;;;5138225;27;20561;-46
2021/01/08 04:48:06;;;;;;;12.13;8.20;;;-0.20;99.90;;;;;;5139678;27;20187;-46
2021/01/08 04:50:32;;;;;;;11.90;9.47;;;-0.20;99.90;;;;;;5140187;27;20295;-45
2021/01/08 04:52:58;;;;;;;12.87;9.83;;;-0.30;99.90;;;;;;5139412;27;20504;-46
2021/01/08 04:55:25;;;;;;;12.80;8.40;;;-0.30;99.90;;;;;;5139330;27;20537;-45
2021/01/08 04:57:52;;;;;;;14.63;9.50;;;-0.20;99.90;;;;;;5141208;27;20510;-45
2021/01/08 05:00:19;;;;;;;11.50;8.17;;;-0.10;99.90;;;;;;5140394;27;20496;-45
2021/01/08 05:02:45;;;;;;;12.50;8.77;;;-0.10;99.90;;;;;;5141421;27;20408;-46
2021/01/08 05:05:13;;;;;;;12.47;9.23;;;-0.10;99.90;;;;;;5141006;27;20694;-46
2021/01/08 05:07:39;;;;;;;12.50;8.40;;;-0.10;99.90;;;;;;5141603;27;20909;-45
2021/01/08 05:10:05;;;;;;;11.53;8.93;;;-0.10;99.90;;;;;;5140938;27;20420;-45
2021/01/08 05:12:41;;;;;;;13.23;8.13;;;-0.20;99.90;;;;;;5141284;27;20432;-46
2021/01/08 05:15:14;;;;;;;11.60;8.20;;;-0.20;99.90;;;;;;5140097;27;20797;-45
2021/01/08 05:17:41;;;;;;;12.37;8.00;;;-0.20;99.90;;;;;;5139506;27;20420;-45
2021/01/08 05:20:07;;;;;;;13.90;9.20;;;-0.30;99.90;;;;;;5140279;27;20401;-45
2021/01/08 05:22:33;;;;;;;10.50;8.30;;;-0.30;99.90;;;;;;5140540;27;20444;-45
2021/01/08 05:25:09;;;;;;;11.90;8.03;;;-0.30;99.90;;;;;;5140868;27;20447;-45
2021/01/08 05:27:35;;;;;;;9.70;7.70;;;-0.30;99.90;;;;;;5140677;27;20416;-46
2021/01/08 05:30:16;;;;;;;13.17;8.97;;;-0.20;99.90;;;;;;5139249;27;20829;-45
2021/01/08 05:32:42;;;;;;;12.27;7.77;;;-0.20;99.90;;;;;;5140796;27;20429;-46
2021/01/08 05:35:12;;;;;;;12.13;8.67;;;-0.20;99.90;;;;;;5140434;27;20457;-46
2021/01/08 05:37:47;;;;;;;9.83;8.23;;;-0.20;99.90;;;;;;5141138;27;20425;-45
2021/01/08 05:40:16;;;;;;;12.00;8.43;;;-0.20;99.90;;;;;;5139959;27;20463;-44
2021/01/08 05:42:54;;;;;;;11.90;7.77;;;-0.20;99.90;;;;;;5140611;27;20427;-45
2021/01/08 05:45:20;;;;;;;10.43;7.73;;;-0.20;99.90;;;;;;5139685;27;20806;-44
2021/01/08 05:47:50;;;;;;;10.60;7.80;;;-0.20;99.90;;;;;;5139198;27;20489;-45
2021/01/08 05:50:19;;;;;;;11.13;8.00;;;-0.20;99.90;;;;;;5139953;27;20420;-44
2021/01/08 05:52:45;;;;;;;11.50;7.63;;;-0.30;99.90;;;;;;5139545;27;20433;-45
2021/01/08 05:55:11;;;;;;;10.63;7.83;;;-0.20;99.90;;;;;;5138770;27;20464;-45
2021/01/08 05:57:37;;;;;;;11.47;8.40;;;-0.20;99.90;;;;;;5140458;27;21142;-45
2021/01/08 06:00:05;;;;;;;9.43;7.87;;;-0.20;99.90;;;;;;5130181;27;20418;-45
2021/01/08 06:02:32;;;;;;;12.03;7.23;;;-0.20;99.90;;;;;;5119643;28;20180;-45
2021/01/08 06:04:58;;;;;;;9.97;7.70;;;-0.20;99.90;;;;;;5136363;27;20432;-45
2021/01/08 06:07:26;;;;;;;10.80;7.50;;;-0.20;99.90;;;;;;5127752;27;20570;-45
2021/01/08 06:09:52;;;;;;;9.70;7.40;;;-0.10;99.90;;;;;;5136738;27;20493;-45
2021/01/08 06:12:18;;;;;;;10.30;8.13;;;-0.10;99.90;;;;;;5138120;27;20425;-45
2021/01/08 06:14:44;;;;;;;9.60;7.00;;;-0.10;99.90;;;;;;5138012;27;21103;-45
2021/01/08 06:17:10;;;;;;;10.67;7.50;;;-0.10;99.90;;;;;;5136556;27;20490;-45
2021/01/08 06:19:36;;;;;;;9.93;7.70;;;-0.10;99.90;;;;;;5137640;27;20553;-45
2021/01/08 06:22:01;;;;;;;10.13;7.30;;;-0.10;99.90;;;;;;5136747;27;20352;-45
2021/01/08 06:24:28;;;;;;;10.50;7.40;;;-0.10;99.90;;;;;;5135960;27;20551;-45
2021/01/08 06:26:55;;;;;;;9.20;7.20;;;-0.10;99.90;;;;;;5138093;27;20273;-45
2021/01/08 06:29:22;;;;;;;12.07;8.33;;;0.00;99.90;;;;;;5138247;27;20420;-45
2021/01/08 06:31:54;;;;;;;7.93;6.80;;;0.00;99.90;;;;;;5138246;27;20860;-45
2021/01/08 06:34:30;;;;;;;10.13;7.87;;;0.00;99.90;;;;;;5137272;27;20496;-45
2021/01/08 06:37:08;;;;;;;11.90;8.10;;;0.00;99.90;;;;;;5139511;27;20769;-45
2021/01/08 06:39:45;;;;;;;9.33;7.33;;;-0.10;99.90;;;;;;5138066;27;20420;-46
2021/01/08 06:42:28;;;;;;;9.20;7.33;;;-0.10;99.90;;;;;;5132755;27;20891;-45
2021/01/08 06:44:58;;;;;;;8.57;6.90;;;0.00;99.90;;;;;;5138854;27;20416;-45
2021/01/08 06:47:24;;;;;;;11.50;8.70;;;0.00;99.90;;;;;;5139299;27;20431;-45
2021/01/08 06:49:53;;;;;;;11.67;8.57;;;-0.10;99.90;;;;;;5137204;27;20416;-45
2021/01/08 06:52:21;;;;;;;11.10;8.20;;;-0.10;99.90;;;;;;5137316;27;20436;-45
2021/01/08 06:54:52;;;;;;;11.20;8.47;;;-0.10;99.90;;;;;;5137523;27;20415;-45
2021/01/08 06:57:18;;;;;;;10.80;7.50;;;0.00;99.90;;;;;;5137818;27;20460;-45
2021/01/08 06:59:55;;;;;;;10.60;8.30;;;0.00;99.90;;;;;;5137563;27;20901;-45
2021/01/08 07:02:22;;;;;;;12.53;7.90;;;0.00;99.90;;;;;;5137886;27;20494;-45
2021/01/08 07:04:48;;;;;;;11.63;8.53;;;-0.10;99.90;;;;;;5137523;27;20420;-45
2021/01/08 07:07:29;;;;;;;12.70;9.20;;;-0.10;99.90;;;;;;5138464;27;20452;-45
2021/01/08 07:09:55;;;;;;;11.53;8.63;;;0.00;99.90;;;;;;5137110;27;20505;-45
2021/01/08 07:12:25;;;;;;;11.20;8.30;;;0.00;99.90;;;;;;5136948;27;20460;-46
2021/01/08 07:14:52;;;;;;;9.47;7.63;;;0.00;99.90;;;;;;5138024;27;20460;-46
2021/01/08 07:17:31;;;;;;;13.17;9.07;;;0.00;99.90;;;;;;5138672;27;20424;-45
2021/01/08 07:20:00;;;;;;;10.80;7.73;;;0.00;99.90;;;;;;5138977;27;20735;-45
2021/01/08 07:22:40;;;;;;;12.87;8.93;;;0.10;99.90;;;;;;5138159;27;20937;-45
2021/01/08 07:25:13;;;;;;;10.97;8.30;;;0.10;99.90;;;;;;5138280;27;20432;-45
2021/01/08 07:27:43;;;;;;;10.50;8.00;;;0.10;99.90;;;;;;5138412;27;20528;-45
2021/01/08 07:30:10;;;;;;;12.43;7.70;;;0.10;99.90;;;;;;5139009;27;20837;-45
2021/01/08 07:32:42;;;;;;;12.70;8.67;;;0.20;99.90;;;;;;5138613;27;20440;-45
2021/01/08 07:35:31;;;;;;;12.13;8.30;;;0.20;99.90;;;;;;5117460;28;20879;-45
2021/01/08 07:38:14;;;;;;;12.37;8.50;;;0.20;99.90;;;;;;5138353;27;20493;-45
2021/01/08 07:40:49;;;;;;;11.53;8.60;;;0.20;99.90;;;;;;5138425;27;20400;-45
2021/01/08 07:43:15;;;;;;;12.37;8.50;;;0.20;99.90;;;;;;5138827;27;20405;-43
2021/01/08 07:45:48;;;;;;;10.10;7.63;;;0.30;99.90;;;;;;5137684;27;20483;-46
2021/01/08 07:48:38;;;;;;;11.83;8.30;;;0.30;99.90;;;;;;5138389;27;20429;-45
2021/01/08 07:51:09;;;;;;;10.27;8.30;;;0.40;99.90;;;;;;5137986;27;20761;-45
2021/01/08 07:53:40;;;;;;;11.90;8.30;;;0.40;99.90;;;;;;5139002;27;20427;-45
2021/01/08 07:56:07;;;;;;;10.23;7.90;;;0.50;99.90;;;;;;5137275;28;20475;-45
2021/01/08 07:58:32;;;;;;;9.40;6.93;;;0.50;99.70;;;;;;5137359;27;20416;-46
2021/01/08 08:01:06;;;;;;;10.40;8.40;;;0.40;99.60;;;;;;5134979;28;20698;-45
2021/01/08 08:03:31;;;;;;;10.63;7.77;;;0.40;99.80;;;;;;5136748;27;20499;-45
2021/01/08 08:06:00;;;;;;;10.83;7.80;;;0.50;99.90;;;;;;5136457;28;20447;-45
2021/01/08 08:08:26;;;;;;;10.50;8.10;;;0.60;99.70;;;;;;5136703;27;20232;-45
2021/01/08 08:10:51;;;;;;;10.73;7.90;;;0.60;99.60;;;;;;5136858;27;20542;-45
2021/01/08 08:13:27;;;;;;;11.50;8.43;;;0.70;99.50;;;;;;5141812;27;20429;-45
2021/01/08 08:15:52;;;;;;;8.83;6.40;;;0.70;99.30;;;;;;5141860;27;20249;-45
2021/01/08 08:18:18;;;;;;;10.30;7.93;;;0.60;99.00;;;;;;5141157;27;20428;-45
2021/01/08 08:20:44;;;;;;;8.87;6.90;;;0.60;99.10;;;;;;5140744;27;20429;-45
2021/01/08 08:23:17;;;;;;;10.50;8.17;;;0.60;99.20;;;;;;5140701;27;20179;-46
2021/01/08 08:25:44;;;;;;;9.87;6.83;;;0.60;99.40;;;;;;5140739;27;20183;-45
2021/01/08 08:28:10;;;;;;;9.40;7.70;;;0.70;99.30;;;;;;5140459;27;20415;-46
2021/01/08 08:30:37;;;;;;;8.20;6.40;;;0.70;99.50;;;;;;5141375;27;20420;-45
2021/01/08 08:33:06;;;;;;;8.77;6.83;;;0.70;99.20;;;;;;5140163;27;20413;-45
2021/01/08 08:35:35;;;;;;;6.43;5.10;;;0.80;99.10;;;;;;5138033;27;20472;-45
2021/01/08 08:38:01;;;;;;;11.00;7.07;;;0.80;99.00;;;;;;5118500;28;20433;-45
2021/01/08 08:40:29;;;;;;;8.97;7.53;;;0.80;98.90;;;;;;5119612;28;20674;-46
2021/01/08 08:42:59;;;;;;;7.60;6.20;;;0.90;99.20;;;;;;5139597;27;20187;-45
2021/01/08 08:45:27;;;;;;;7.97;5.80;;;1.10;98.80;;;;;;5141138;27;20444;-45
2021/01/08 08:47:55;;;;;;;6.40;5.30;;;1.00;98.70;;;;;;5140480;27;20435;-45
2021/01/08 08:50:21;;;;;;;8.30;5.43;;;0.80;98.70;;;;;;5141135;27;20838;-45
2021/01/08 08:52:47;;;;;;;7.00;5.70;;;1.00;98.90;;;;;;5141604;27;20428;-45
2021/01/08 08:55:32;;;;;;;6.87;5.27;;;0.90;98.60;;;;;;5140005;27;20777;-45
2021/01/08 08:58:03;;;;;;;7.73;5.33;;;1.00;98.70;;;;;;5140673;27;20509;-45
2021/01/08 09:00:29;;;;;;;6.10;4.20;;;1.00;98.50;;;;;;5140005;27;20699;-45
2021/01/08 09:02:55;;;;;;;4.43;3.90;;;1.10;98.50;;;;;;5140670;27;20812;-45
2021/01/08 09:05:28;;;;;;;8.00;5.30;;;1.20;98.20;;;;;;5139357;27;20472;-45
2021/01/08 09:08:03;;;;;;;6.63;5.33;;;1.20;98.10;;;;;;5138294;27;20429;-45
2021/01/08 09:10:33;;;;;;;5.77;4.77;;;1.40;98.20;;;;;;5139902;27;20405;-45
2021/01/08 09:13:14;;;;;;;6.13;5.53;;;1.40;97.80;;;;;;5118654;28;20433;-45
2021/01/08 09:15:51;;;;;;;5.30;4.53;;;1.60;97.90;;;;;;5121077;27;20487;-45
2021/01/08 09:18:37;;;;;;;6.80;5.07;;;1.70;97.60;;;;;;5140375;27;20531;-45
2021/01/08 09:21:11;;;;;;;6.83;5.40;;;1.70;97.70;;;;;;5140506;27;20425;-46
2021/01/08 09:23:37;;;;;;;4.47;3.90;;;1.80;97.60;;;;;;5140195;27;20412;-45
2021/01/08 09:26:05;;;;;;;4.20;3.80;;;1.80;97.20;;;;;;5140506;27;20417;-45
2021/01/08 09:28:42;;;;;;;5.10;4.43;;;1.60;97.00;;;;;;5140496;27;20821;-44
2021/01/08 09:31:08;;;;;;;4.17;3.77;;;1.40;97.50;;;;;;5139241;27;20436;-45
2021/01/08 09:33:34;;;;;;;4.87;3.80;;;1.40;97.90;;;;;;5140041;27;20451;-44
2021/01/08 09:36:00;;;;;;;4.73;4.33;;;1.50;98.10;;;;;;5139552;27;20926;-45
2021/01/08 09:38:26;;;;;;;5.00;4.33;;;1.70;97.90;;;;;;5138768;27;20452;-45
2021/01/08 09:40:51;;;;;;;4.37;3.60;;;1.60;97.60;;;;;;5137948;27;20424;-44
2021/01/08 09:43:18;;;;;;;4.07;3.67;;;1.60;97.20;;;;;;5139427;27;20431;-44
2021/01/08 09:45:44;;;;;;;4.67;3.77;;;1.40;97.30;;;;;;5139205;27;20199;-45
2021/01/08 09:48:21;;;;;;;4.30;3.80;;;1.50;97.20;;;;;;5139899;27;20774;-44
2021/01/08 09:50:47;;;;;;;5.23;4.43;;;1.60;97.30;;;;;;5127732;27;20471;-44
2021/01/08 09:53:13;;;;;;;3.60;3.20;;;1.50;96.80;;;;;;5138439;27;20421;-45
2021/01/08 09:55:38;;;;;;;4.10;3.60;;;1.40;97.10;;;;;;5139288;27;20484;-44
2021/01/08 09:58:04;;;;;;;4.23;3.60;;;1.50;96.80;;;;;;5139393;27;20194;-44
2021/01/08 10:00:35;;;;;;;4.90;3.93;;;1.50;96.80;;;;;;5140337;27;20218;-44
2021/01/08 10:03:05;;;;;;;4.30;3.47;;;1.50;96.80;;;;;;5118830;28;20500;-44
2021/01/08 10:05:36;;;;;;;3.60;3.30;;;1.50;96.70;;;;;;5117947;28;20483;-44
2021/01/08 10:08:04;;;;;;;4.17;3.77;;;1.50;96.80;;;;;;5118796;28;20441;-43
2021/01/08 10:10:37;;;;;;;4.87;3.83;;;1.80;96.80;;;;;;5129525;27;20523;-44
2021/01/08 10:13:07;;;;;;;4.97;4.00;;;1.70;96.40;;;;;;5117240;28;20445;-44
2021/01/08 10:15:46;;;;;;;5.20;4.00;;;1.60;96.30;;;;;;5118307;28;20482;-44
2021/01/08 10:18:12;;;;;;;5.00;4.17;;;1.60;95.90;;;;;;5117119;28;20413;-43
2021/01/08 10:20:45;;;;;;;4.07;3.67;;;1.50;96.20;;;;;;5117029;27;20446;-44
2021/01/08 10:23:13;;;;;;;5.03;4.43;;;1.70;96.60;;;;;;5139384;27;20421;-42
2021/01/08 10:25:39;;;;;;;4.67;4.20;;;1.90;96.30;;;;;;5139220;27;20432;-43
2021/01/08 10:28:20;;;;;;;5.07;4.57;;;2.00;95.80;;;;;;5139645;27;20421;-44
2021/01/08 10:30:48;;;;;;;6.33;4.07;;;1.90;95.50;;;;;;5138737;27;20422;-44
2021/01/08 10:33:14;;;;;;;5.50;3.73;;;1.50;95.40;;;;;;5138787;27;20431;-44
2021/01/08 10:35:51;;;;;;;5.83;4.73;;;1.60;95.50;;;;;;5136219;27;20811;-44
2021/01/08 10:38:17;;;;;;;4.73;4.23;;;1.50;95.30;;;;;;5135735;27;20436;-43
2021/01/08 10:40:43;;;;;;;4.87;4.43;;;1.50;96.10;;;;;;5125382;27;20430;-44
2021/01/08 10:43:09;;;;;;;5.73;4.80;;;1.30;96.20;;;;;;5135718;27;20482;-44
2021/01/08 10:45:39;;;;;;;6.17;4.67;;;1.30;96.40;;;;;;5137556;27;20812;-45
2021/01/08 10:48:05;;;;;;;7.77;4.60;;;1.20;96.10;;;;;;5132173;27;20195;-44
2021/01/08 10:50:32;;;;;;;6.27;4.30;;;1.40;95.90;;;;;;5137829;27;20846;-44
2021/01/08 10:53:02;;;;;;;6.30;4.03;;;1.40;96.10;;;;;;5137897;27;20435;-44
2021/01/08 10:55:27;;;;;;;6.23;4.27;;;1.50;95.90;;;;;;5138380;27;20461;-44
2021/01/08 10:57:55;;;;;;;5.37;4.30;;;1.80;95.70;;;;;;5122806;27;20441;-44
2021/01/08 11:00:21;;;;;;;4.90;4.30;;;1.80;95.30;;;;;;5119293;27;20284;-44
2021/01/08 11:02:47;;;;;;;5.63;4.70;;;1.80;94.50;;;;;;5126838;27;20441;-44
2021/01/08 11:05:13;;;;;;;5.53;4.60;;;1.60;95.20;;;;;;5118419;28;20989;-44
2021/01/08 11:07:39;;;;;;;6.97;4.57;;;1.70;95.40;;;;;;5133843;27;20183;-44
2021/01/08 11:10:06;;;;;;;5.17;4.57;;;1.80;95.60;;;;;;5131438;27;20449;-44
2021/01/08 11:12:33;;;;;;;7.03;5.23;;;2.30;95.30;;;;;;5130153;27;20203;-44
2021/01/08 11:15:08;;;;;;;5.33;4.70;;;2.40;94.00;;;;;;5116659;28;20552;-44
2021/01/08 11:17:34;;;;;;;5.83;4.43;;;2.50;93.40;;;;;;5134514;27;20482;-44
2021/01/08 11:20:00;;;;;;;6.53;4.23;;;2.60;93.90;;;;;;5120830;27;20436;-43
2021/01/08 11:22:27;;;;;;;5.33;4.20;;;2.60;93.60;;;;;;5131341;27;20448;-44
2021/01/08 11:24:53;;;;;;;5.83;4.80;;;2.50;93.70;;;;;;5121028;27;20188;-44
2021/01/08 11:27:19;;;;;;;6.93;3.90;;;2.50;93.90;;;;;;5127110;27;20425;-44
2021/01/08 11:29:45;;;;;;;5.13;3.90;;;2.90;93.60;;;;;;5116582;28;20180;-45
2021/01/08 11:32:10;;;;;;;4.90;4.40;;;3.20;92.70;;;;;;5122408;27;20549;-45
2021/01/08 11:34:39;;;;;;;5.73;4.70;;;3.10;92.60;;;;;;5119234;27;20183;-45
2021/01/08 11:37:06;;;;;;;6.10;4.37;;;2.70;92.70;;;;;;5129912;27;20243;-45
2021/01/08 11:39:32;;;;;;;6.07;4.63;;;2.50;93.00;;;;;;5127498;27;20429;-46
2021/01/08 11:41:57;;;;;;;5.53;4.80;;;2.40;93.70;;;;;;5124742;27;20437;-45
2021/01/08 11:44:24;;;;;;;5.67;4.70;;;2.40;93.60;;;;;;5117728;28;20917;-46
2021/01/08 11:46:50;;;;;;;6.07;4.30;;;2.10;93.40;;;;;;5127228;27;20269;-45
2021/01/08 11:49:17;;;;;;;4.80;4.10;;;2.10;93.70;;;;;;5119164;27;20711;-45
2021/01/08 11:51:43;;;;;;;4.60;3.43;;;2.40;93.80;;;;;;5126990;28;20433;-45
2021/01/08 11:54:09;;;;;;;4.73;4.00;;;2.60;93.40;;;;;;5116627;28;20723;-45
2021/01/08 11:56:35;;;;;;;5.83;4.40;;;2.70;92.50;;;;;;5124408;28;20892;-45
2021/01/08 11:59:00;;;;;;;6.00;4.23;;;2.70;92.30;;;;;;5129758;28;20461;-46
2021/01/08 12:01:30;;;;;;;5.20;3.53;;;2.70;91.70;;;;;;5135726;28;20743;-45
2021/01/08 12:03:56;;;;;;;4.77;4.03;;;2.70;92.00;;;;;;5137401;27;20191;-45
2021/01/08 12:06:29;;;;;;;7.53;4.23;;;3.20;91.40;;;;;;5137316;27;20444;-45
2021/01/08 12:08:56;;;;;;;4.80;3.53;;;3.00;90.70;;;;;;5130208;27;20440;-45
2021/01/08 12:11:23;;;;;;;5.00;3.90;;;2.90;90.70;;;;;;5122452;28;20428;-45
2021/01/08 12:13:51;;;;;;;4.40;3.70;;;2.60;90.70;;;;;;5136293;27;20428;-45
2021/01/08 12:16:33;;;;;;;6.03;4.30;;;3.00;91.10;;;;;;5131660;27;20739;-45
2021/01/08 12:19:00;;;;;;;3.90;3.40;;;2.60;90.90;;;;;;5134911;27;20718;-45
2021/01/08 12:21:28;;;;;;;6.20;3.67;;;2.50;91.40;;;;;;5137185;27;20456;-45
2021/01/08 12:23:54;;;;;;;5.47;4.13;;;2.80;91.00;;;;;;5117274;27;20438;-44
2021/01/08 12:26:20;;;;;;;6.20;4.57;;;2.40;91.50;;;;;;5120103;28;20450;-44
2021/01/08 12:28:49;;;;;;;5.60;4.50;;;2.30;92.00;;;;;;5115639;28;20701;-44
2021/01/08 12:31:19;;;;;;;7.13;4.50;;;2.20;92.00;;;;;;5128598;28;20436;-44
2021/01/08 12:33:45;;;;;;;6.77;4.83;;;1.80;91.70;;;;;;5136887;28;20457;-45
2021/01/08 12:36:12;;;;;;;5.30;4.53;;;1.80;92.00;;;;;;5136409;27;20847;-45
2021/01/08 12:38:37;;;;;;;6.30;4.57;;;1.90;92.10;;;;;;5136659;27;20205;-46
2021/01/08 12:41:03;;;;;;;6.10;4.57;;;2.10;93.00;;;;;;5137953;27;20698;-45
2021/01/08 12:43:29;;;;;;;6.00;4.33;;;2.30;92.20;;;;;;5136041;28;20580;-46
2021/01/08 12:45:55;;;;;;;6.43;4.97;;;2.30;92.00;;;;;;5137371;27;20453;-45
2021/01/08 12:48:21;;;;;;;6.50;4.63;;;2.40;91.90;;;;;;5136369;28;20197;-46
2021/01/08 12:50:46;;;;;;;6.53;4.33;;;2.30;91.80;;;;;;5135098;28;20207;-46